Time;durP1;ratioP1;P1;durP2;ratioP2;P2;SDS_P1;SDS_P2;PMS_P1;PMS_P2;Temp;Humidity;BMP_temperature;BMP_pressure;BME280_temperature;BME280_humidity;BME280_pressure;Samples;Min_cycle;Max_cycle;Signal;HPM_P1;HPM_P2
2022/09/29 00:00:54;;;;;;;75.00;55.00;;;28.40;99.90;;;;;;5084781;28;20136;-71
2022/09/29 00:03:21;;;;;;;77.82;53.20;;;28.50;99.90;;;;;;5091198;28;20016;-71
2022/09/29 00:05:51;;;;;;;76.30;48.83;;;28.60;99.90;;;;;;5096486;28;20036;-69
2022/09/29 00:08:20;;;;;;;75.60;50.50;;;28.70;99.90;;;;;;5096397;28;20028;-69
2022/09/29 00:10:47;;;;;;;63.38;44.03;;;28.70;99.90;;;;;;5096392;28;20031;-70
2022/09/29 00:13:14;;;;;;;159.82;118.82;;;28.70;99.90;;;;;;5096297;28;20438;-68
2022/09/29 00:15:41;;;;;;;112.40;78.28;;;28.80;99.90;;;;;;5096793;28;20031;-68
2022/09/29 00:18:10;;;;;;;310.10;210.73;;;28.80;99.90;;;;;;5106087;22;20123;-68
2022/09/29 00:20:37;;;;;;;79.82;56.15;;;28.70;99.90;;;;;;5076282;28;20033;-68
2022/09/29 00:23:04;;;;;;;76.10;44.83;;;28.80;99.90;;;;;;5075809;28;20095;-68
2022/09/29 00:25:31;;;;;;;63.78;43.30;;;28.80;99.90;;;;;;5076383;28;20024;-68
2022/09/29 00:27:57;;;;;;;65.63;40.05;;;28.90;99.90;;;;;;5075976;28;20025;-68
2022/09/29 00:30:24;;;;;;;57.10;39.17;;;28.90;99.90;;;;;;5076211;28;20110;-68
2022/09/29 00:32:50;;;;;;;60.00;37.83;;;29.00;99.90;;;;;;5075879;28;20016;-68
2022/09/29 00:35:17;;;;;;;62.45;38.85;;;28.90;99.90;;;;;;5075804;28;20028;-67
2022/09/29 00:37:44;;;;;;;63.33;40.90;;;29.00;99.90;;;;;;5076214;28;20059;-68
2022/09/29 00:40:11;;;;;;;68.03;41.38;;;29.00;99.90;;;;;;5075614;28;20562;-68
2022/09/29 00:42:37;;;;;;;60.60;41.45;;;29.00;99.90;;;;;;5075389;28;20025;-68
2022/09/29 00:45:19;;;;;;;59.65;42.05;;;29.10;99.90;;;;;;5075644;28;20440;-68
2022/09/29 00:47:51;;;;;;;56.08;37.10;;;29.10;99.90;;;;;;5075238;28;20486;-67
2022/09/29 00:50:18;;;;;;;52.92;37.90;;;29.20;99.90;;;;;;5075400;28;20047;-67
2022/09/29 00:52:53;;;;;;;57.78;38.95;;;29.20;99.90;;;;;;5075503;28;20020;-68
2022/09/29 00:55:26;;;;;;;53.30;36.28;;;29.20;99.90;;;;;;5075051;28;20104;-67
2022/09/29 00:58:17;;;;;;;61.47;38.38;;;29.30;99.90;;;;;;5075604;28;20364;-68
2022/09/29 01:00:44;;;;;;;51.30;35.25;;;29.30;99.90;;;;;;5075363;28;20021;-68
2022/09/29 01:03:16;;;;;;;58.35;37.50;;;29.40;99.90;;;;;;5075235;28;20028;-67
2022/09/29 01:05:47;;;;;;;48.35;35.63;;;29.50;99.90;;;;;;5074940;28;20042;-68
2022/09/29 01:08:24;;;;;;;52.65;37.83;;;29.60;99.90;;;;;;5074153;28;20036;-69
2022/09/29 01:10:52;;;;;;;50.17;32.70;;;29.70;99.90;;;;;;5074203;28;20074;-67
2022/09/29 01:13:21;;;;;;;47.20;32.65;;;29.70;99.90;;;;;;5074980;28;20027;-68
2022/09/29 01:15:47;;;;;;;48.47;32.80;;;29.70;99.90;;;;;;5074765;28;20027;-68
2022/09/29 01:18:14;;;;;;;45.63;32.10;;;29.80;99.90;;;;;;5074600;28;20080;-67
2022/09/29 01:21:09;;;;;;;53.95;34.47;;;29.90;99.90;;;;;;5074754;28;20055;-68
2022/09/29 01:23:38;;;;;;;44.97;34.45;;;29.90;99.90;;;;;;5074189;28;20067;-68
2022/09/29 01:26:15;;;;;;;58.47;34.58;;;29.90;99.90;;;;;;5074754;28;20025;-68
2022/09/29 01:28:59;;;;;;;51.88;34.42;;;29.90;99.90;;;;;;5074754;28;20025;-69
2022/09/29 01:31:54;;;;;;;56.70;38.83;;;30.00;99.90;;;;;;5074592;28;20021;-69
2022/09/29 01:34:25;;;;;;;52.30;35.83;;;30.00;99.90;;;;;;5069394;28;20496;-68
2022/09/29 01:36:51;;;;;;;43.85;33.15;;;30.00;99.90;;;;;;5063176;28;20100;-68
2022/09/29 01:39:35;;;;;;;53.55;35.13;;;30.10;99.90;;;;;;5054299;28;20412;-68
2022/09/29 01:42:12;;;;;;;47.75;34.63;;;30.10;99.90;;;;;;5054326;28;20480;-68
2022/09/29 01:44:45;;;;;;;51.90;34.72;;;30.20;99.90;;;;;;5054242;28;20083;-68
2022/09/29 01:47:19;;;;;;;51.45;34.50;;;30.10;99.90;;;;;;5054187;28;20029;-68
2022/09/29 01:49:55;;;;;;;51.22;34.13;;;30.20;99.90;;;;;;5053908;28;20075;-68
2022/09/29 01:52:25;;;;;;;49.25;33.40;;;30.20;99.90;;;;;;5054284;28;20384;-68
2022/09/29 01:55:00;;;;;;;52.85;34.22;;;30.20;99.90;;;;;;5061048;28;20020;-67
2022/09/29 01:57:32;;;;;;;57.05;34.30;;;30.40;99.90;;;;;;5063568;28;20439;-68
2022/09/29 02:00:02;;;;;;;47.42;33.53;;;30.40;99.90;;;;;;5073965;28;20078;-68
2022/09/29 02:02:45;;;;;;;50.25;32.88;;;30.50;99.90;;;;;;5064528;28;20076;-67
2022/09/29 02:05:22;;;;;;;52.33;31.75;;;30.50;99.90;;;;;;5073597;28;20013;-68
2022/09/29 02:07:49;;;;;;;51.60;31.77;;;30.60;99.90;;;;;;5073549;28;20020;-67
2022/09/29 02:10:33;;;;;;;49.45;31.75;;;30.70;99.90;;;;;;5073768;28;20048;-67
2022/09/29 02:13:04;;;;;;;44.03;31.00;;;30.70;99.90;;;;;;5073621;28;20021;-68
2022/09/29 02:15:35;;;;;;;46.37;31.57;;;30.80;99.90;;;;;;5073604;28;20475;-66
2022/09/29 02:18:11;;;;;;;38.83;30.48;;;30.80;99.90;;;;;;5073883;28;20044;-67
2022/09/29 02:20:37;;;;;;;39.33;28.45;;;30.80;99.90;;;;;;5073745;28;20360;-67
2022/09/29 02:23:04;;;;;;;36.88;27.77;;;30.90;99.90;;;;;;5073700;28;20073;-67
2022/09/29 02:25:37;;;;;;;40.80;29.20;;;30.90;99.90;;;;;;5073474;28;20395;-67
2022/09/29 02:28:05;;;;;;;37.90;28.48;;;30.80;99.90;;;;;;5073596;28;20431;-67
2022/09/29 02:30:32;;;;;;;41.10;29.23;;;30.70;99.90;;;;;;5073533;28;20555;-67
2022/09/29 02:32:58;;;;;;;40.53;29.13;;;30.70;99.90;;;;;;5073344;28;20021;-67
2022/09/29 02:35:35;;;;;;;44.45;28.98;;;30.80;99.90;;;;;;5073286;28;20020;-67
2022/09/29 02:38:08;;;;;;;40.08;29.75;;;30.90;99.90;;;;;;5073381;28;20035;-68
2022/09/29 02:40:50;;;;;;;39.33;27.95;;;30.90;99.90;;;;;;5073372;28;20108;-67
2022/09/29 02:43:39;;;;;;;41.03;27.45;;;30.80;99.90;;;;;;5073354;28;20418;-68
2022/09/29 02:46:16;;;;;;;37.70;27.98;;;30.80;99.90;;;;;;5073356;28;20028;-68
2022/09/29 02:48:55;;;;;;;38.55;27.05;;;31.00;99.90;;;;;;5071239;28;20028;-67
2022/09/29 02:51:26;;;;;;;34.60;26.20;;;31.00;99.90;;;;;;5055681;28;20380;-68
2022/09/29 02:54:11;;;;;;;34.67;25.67;;;31.10;99.90;;;;;;5053411;28;20035;-68
2022/09/29 02:56:45;;;;;;;45.22;27.88;;;31.10;99.90;;;;;;5053182;28;20123;-68
2022/09/29 02:59:20;;;;;;;42.10;26.73;;;31.30;99.90;;;;;;5052901;28;20025;-70
2022/09/29 03:01:52;;;;;;;35.85;24.38;;;31.40;99.90;;;;;;5057676;28;20438;-70
2022/09/29 03:04:21;;;;;;;29.92;23.20;;;31.50;99.90;;;;;;5073279;28;20074;-72
2022/09/29 03:06:48;;;;;;;35.50;25.48;;;31.70;99.90;;;;;;5073189;28;20032;-71
2022/09/29 03:09:14;;;;;;;37.13;24.95;;;31.70;99.90;;;;;;5073138;28;20429;-71
2022/09/29 03:11:41;;;;;;;34.92;24.95;;;31.80;99.90;;;;;;5072781;28;20055;-71
2022/09/29 03:14:08;;;;;;;37.75;27.48;;;31.90;99.90;;;;;;5072793;28;20021;-71
2022/09/29 03:16:35;;;;;;;38.47;26.48;;;32.00;99.90;;;;;;5073020;28;20066;-70
2022/09/29 03:19:04;;;;;;;32.20;25.83;;;32.00;99.90;;;;;;5076792;28;20052;-71
2022/09/29 03:21:31;;;;;;;39.78;26.67;;;32.10;99.90;;;;;;5076761;28;20028;-70
2022/09/29 03:23:58;;;;;;;42.47;25.95;;;32.20;99.90;;;;;;5070720;28;20533;-69
2022/09/29 03:26:25;;;;;;;38.58;27.45;;;32.20;99.90;;;;;;5084787;28;20031;-68
2022/09/29 03:28:52;;;;;;;37.92;29.60;;;32.30;99.90;;;;;;5085119;28;20535;-69
2022/09/29 03:31:19;;;;;;;37.08;28.58;;;32.20;99.90;;;;;;5086651;28;20137;-68
2022/09/29 03:33:46;;;;;;;35.22;28.48;;;32.10;99.90;;;;;;5085202;28;20016;-65
2022/09/29 03:36:12;;;;;;;46.97;27.75;;;32.00;99.90;;;;;;5084896;28;20016;-67
2022/09/29 03:38:39;;;;;;;37.38;26.65;;;32.00;99.90;;;;;;5086537;28;20024;-67
2022/09/29 03:41:06;;;;;;;36.97;27.17;;;32.00;99.90;;;;;;5085124;28;20025;-67
2022/09/29 03:43:33;;;;;;;38.78;29.15;;;32.00;99.90;;;;;;5084566;28;20031;-69
2022/09/29 03:45:59;;;;;;;39.47;27.08;;;32.10;99.90;;;;;;5086382;28;20035;-70
2022/09/29 03:48:30;;;;;;;39.63;26.88;;;32.20;99.90;;;;;;5084783;28;20017;-68
2022/09/29 03:50:57;;;;;;;39.42;28.77;;;32.20;99.90;;;;;;5090315;28;20027;-67
2022/09/29 03:53:23;;;;;;;34.65;27.17;;;32.20;99.90;;;;;;5092156;28;20066;-68
2022/09/29 03:55:50;;;;;;;37.28;24.67;;;32.30;99.90;;;;;;5066998;28;20021;-67
2022/09/29 03:58:17;;;;;;;35.40;24.48;;;32.50;99.90;;;;;;5056417;28;20047;-68
2022/09/29 04:00:46;;;;;;;34.42;23.17;;;32.60;99.90;;;;;;5057048;28;20082;-71
2022/09/29 04:03:12;;;;;;;30.60;23.10;;;32.50;99.80;;;;;;5056531;28;20036;-71
2022/09/29 04:05:40;;;;;;;34.53;23.33;;;32.60;99.90;;;;;;5059242;28;20021;-72
2022/09/29 04:08:07;;;;;;;27.00;22.02;;;32.70;99.90;;;;;;5076259;28;20024;-72
2022/09/29 04:10:35;;;;;;;31.85;24.38;;;32.80;99.90;;;;;;5086124;28;20470;-71
2022/09/29 04:13:01;;;;;;;28.92;23.38;;;32.80;99.70;;;;;;5085939;28;20537;-71
2022/09/29 04:15:28;;;;;;;98.47;78.75;;;32.90;99.00;;;;;;5084759;28;20027;-71
2022/09/29 04:17:55;;;;;;;34.80;26.15;;;32.70;98.40;;;;;;5084699;28;20040;-71
2022/09/29 04:20:22;;;;;;;32.08;23.38;;;32.60;98.60;;;;;;5083767;28;20482;-71
2022/09/29 04:22:49;;;;;;;34.20;23.55;;;32.50;98.70;;;;;;5083467;28;20040;-71
2022/09/29 04:25:16;;;;;;;35.22;25.83;;;32.50;97.90;;;;;;5085167;28;20024;-70
2022/09/29 04:27:42;;;;;;;32.60;25.48;;;32.50;98.80;;;;;;5087479;28;20420;-71
2022/09/29 04:30:09;;;;;;;34.28;23.70;;;32.60;98.50;;;;;;5082367;28;20025;-71
2022/09/29 04:32:36;;;;;;;32.10;23.35;;;32.60;98.60;;;;;;5083708;28;20016;-69
2022/09/29 04:35:04;;;;;;;40.53;26.58;;;32.70;98.70;;;;;;5084063;28;20104;-70
2022/09/29 04:37:31;;;;;;;31.33;22.05;;;32.70;97.70;;;;;;5083783;28;20024;-71
2022/09/29 04:39:57;;;;;;;34.38;23.40;;;32.90;97.80;;;;;;5084840;28;20021;-71
2022/09/29 04:42:24;;;;;;;31.88;22.33;;;32.90;97.50;;;;;;5085791;28;20073;-70
2022/09/29 04:44:50;;;;;;;30.65;22.27;;;33.10;96.00;;;;;;5088358;28;20031;-71
2022/09/29 04:47:17;;;;;;;33.13;23.55;;;32.90;96.30;;;;;;5087357;28;20110;-68
2022/09/29 04:49:43;;;;;;;30.08;23.02;;;33.00;97.20;;;;;;5084249;28;20020;-71
2022/09/29 04:52:11;;;;;;;37.50;24.17;;;33.10;97.20;;;;;;5085091;28;20050;-72
2022/09/29 04:54:38;;;;;;;35.25;24.73;;;33.20;95.80;;;;;;5084747;28;20024;-67
2022/09/29 04:57:05;;;;;;;27.77;22.65;;;33.20;95.90;;;;;;5084293;28;20020;-68
2022/09/29 04:59:32;;;;;;;33.83;22.08;;;33.20;96.60;;;;;;5082975;28;20094;-67
2022/09/29 05:01:59;;;;;;;30.17;22.33;;;33.20;96.20;;;;;;5083511;28;20038;-65
2022/09/29 05:04:25;;;;;;;36.53;26.27;;;33.10;95.80;;;;;;5084694;28;20022;-65
2022/09/29 05:06:52;;;;;;;30.73;23.33;;;33.10;94.90;;;;;;5082354;28;20437;-68
2022/09/29 05:09:18;;;;;;;27.10;21.30;;;33.00;95.30;;;;;;5083318;28;20069;-68
2022/09/29 05:11:45;;;;;;;31.25;21.48;;;33.10;95.20;;;;;;5083077;28;20027;-66
2022/09/29 05:14:11;;;;;;;43.63;25.25;;;33.20;95.60;;;;;;5080706;28;20013;-67
2022/09/29 05:16:38;;;;;;;37.35;25.17;;;33.20;96.40;;;;;;5083981;28;20035;-69
2022/09/29 05:19:05;;;;;;;32.38;27.17;;;33.40;96.40;;;;;;5082539;28;20047;-68
2022/09/29 05:21:32;;;;;;;35.22;23.30;;;33.30;95.30;;;;;;5080250;28;20115;-68
2022/09/29 05:23:59;;;;;;;33.40;24.33;;;33.30;95.50;;;;;;5084045;28;20474;-68
2022/09/29 05:26:25;;;;;;;25.75;22.75;;;33.30;95.30;;;;;;5084761;28;20028;-67
2022/09/29 05:28:52;;;;;;;32.25;25.88;;;33.40;95.20;;;;;;5080359;28;20020;-67
2022/09/29 05:31:18;;;;;;;31.23;24.38;;;33.60;95.00;;;;;;5084649;28;20477;-68
2022/09/29 05:33:45;;;;;;;31.20;22.73;;;33.60;94.90;;;;;;5075087;28;20039;-69
2022/09/29 05:36:12;;;;;;;28.80;22.13;;;33.70;93.90;;;;;;5075117;28;20062;-69
2022/09/29 05:38:39;;;;;;;35.80;28.23;;;33.70;93.50;;;;;;5080431;28;20016;-69
2022/09/29 05:41:09;;;;;;;37.22;27.75;;;33.70;92.50;;;;;;5081693;28;20032;-69
2022/09/29 05:43:36;;;;;;;32.30;28.00;;;33.70;93.50;;;;;;5084246;28;20103;-69
2022/09/29 05:46:05;;;;;;;37.00;26.92;;;33.60;93.40;;;;;;5085233;28;20067;-67
2022/09/29 05:48:32;;;;;;;33.33;21.40;;;33.80;92.50;;;;;;5085353;28;20352;-69
2022/09/29 05:51:05;;;;;;;31.73;21.05;;;33.60;91.80;;;;;;5084712;28;20077;-69
2022/09/29 05:53:31;;;;;;;30.98;20.55;;;33.60;90.00;;;;;;5074109;28;20024;-68
2022/09/29 05:55:58;;;;;;;28.40;19.50;;;33.60;90.80;;;;;;5077126;28;20048;-67
2022/09/29 05:58:25;;;;;;;24.20;20.05;;;33.60;91.10;;;;;;5077369;28;20074;-68
2022/09/29 06:00:51;;;;;;;28.58;21.10;;;33.60;91.20;;;;;;5077774;28;20383;-69
2022/09/29 06:03:18;;;;;;;24.30;20.08;;;33.60;91.20;;;;;;5079375;28;20030;-67
2022/09/29 06:05:44;;;;;;;26.45;21.23;;;33.50;91.30;;;;;;5079424;28;20022;-67
2022/09/29 06:08:11;;;;;;;28.10;21.85;;;33.50;91.30;;;;;;5080360;28;20051;-68
2022/09/29 06:10:37;;;;;;;45.42;37.17;;;33.50;91.10;;;;;;5078842;28;20477;-68
2022/09/29 06:13:04;;;;;;;32.28;24.35;;;33.50;90.70;;;;;;5083734;28;20052;-68
2022/09/29 06:15:30;;;;;;;29.83;22.80;;;33.60;91.00;;;;;;5082206;28;20020;-67
2022/09/29 06:17:59;;;;;;;26.25;20.45;;;33.80;90.70;;;;;;5083553;28;20027;-69
2022/09/29 06:20:27;;;;;;;28.77;21.60;;;33.80;90.80;;;;;;5082487;28;20049;-69
2022/09/29 06:22:54;;;;;;;27.40;19.65;;;33.90;88.90;;;;;;5081524;28;20063;-69
2022/09/29 06:25:22;;;;;;;30.35;21.17;;;34.00;86.80;;;;;;5082820;28;20490;-68
2022/09/29 06:27:48;;;;;;;30.05;22.30;;;34.00;88.90;;;;;;5083301;28;20467;-68
2022/09/29 06:30:15;;;;;;;34.38;19.30;;;34.10;89.20;;;;;;5081608;28;20020;-69
2022/09/29 06:32:41;;;;;;;29.27;20.95;;;34.10;88.40;;;;;;5079670;28;20015;-67
2022/09/29 06:37:55;;;;;;;25.42;19.48;;;34.10;88.30;;;;;;5083552;28;20482;-66
2022/09/29 06:40:24;;;;;;;22.05;16.77;;;34.20;87.80;;;;;;5081762;28;20043;-66
2022/09/29 06:42:50;;;;;;;20.17;16.48;;;34.30;85.70;;;;;;5066663;28;20051;-67
2022/09/29 06:45:18;;;;;;;30.25;18.45;;;34.40;87.30;;;;;;5053623;28;20337;-67
2022/09/29 06:47:44;;;;;;;33.13;20.52;;;34.40;84.90;;;;;;5053283;28;20032;-67
2022/09/29 06:50:11;;;;;;;28.15;16.92;;;34.20;86.20;;;;;;5053454;28;20021;-68
2022/09/29 06:52:37;;;;;;;35.38;18.73;;;34.20;84.60;;;;;;5053387;28;20021;-67
2022/09/29 06:55:04;;;;;;;30.08;18.58;;;34.40;84.50;;;;;;5053606;28;20483;-70
2022/09/29 06:57:31;;;;;;;24.00;16.92;;;34.40;83.90;;;;;;5072044;28;20430;-69
2022/09/29 06:59:57;;;;;;;21.48;16.88;;;34.40;84.30;;;;;;5073264;28;20020;-69
2022/09/29 07:02:24;;;;;;;21.25;15.90;;;34.40;83.10;;;;;;5072894;28;20029;-69
2022/09/29 07:04:51;;;;;;;28.67;21.20;;;34.50;82.90;;;;;;5072718;28;20027;-70
2022/09/29 07:07:17;;;;;;;23.92;16.20;;;34.60;84.10;;;;;;5066162;28;20021;-71
2022/09/29 07:09:44;;;;;;;29.63;18.15;;;34.80;84.30;;;;;;5057318;28;20118;-70
2022/09/29 07:12:10;;;;;;;25.38;16.42;;;35.00;81.40;;;;;;5053154;28;20021;-70
2022/09/29 07:14:37;;;;;;;24.50;17.88;;;35.00;82.80;;;;;;5053220;28;20387;-70
2022/09/29 07:17:04;;;;;;;24.65;17.25;;;34.90;84.20;;;;;;5053028;28;20113;-73
2022/09/29 07:19:31;;;;;;;22.38;17.65;;;34.90;83.70;;;;;;5053073;28;20112;-70
2022/09/29 07:21:58;;;;;;;31.85;21.48;;;34.70;82.50;;;;;;5053883;28;20041;-74
2022/09/29 07:24:25;;;;;;;32.17;18.48;;;34.60;82.70;;;;;;5054224;28;20024;-70
2022/09/29 07:26:52;;;;;;;85.30;60.72;;;34.60;84.00;;;;;;5053886;28;20446;-71
2022/09/29 07:29:18;;;;;;;83.88;54.85;;;34.50;82.70;;;;;;5053980;28;20147;-71
2022/09/29 07:31:45;;;;;;;149.50;112.00;;;34.40;83.50;;;;;;5053818;28;20491;-70
2022/09/29 07:34:12;;;;;;;26.75;18.13;;;34.30;83.60;;;;;;5053523;28;20104;-70
2022/09/29 07:36:38;;;;;;;47.30;37.08;;;34.30;82.70;;;;;;5054193;28;20028;-70
2022/09/29 07:39:05;;;;;;;43.33;33.55;;;34.20;83.80;;;;;;5053948;28;20087;-69
2022/09/29 07:41:32;;;;;;;31.85;24.73;;;34.20;82.60;;;;;;5053462;28;20420;-68
2022/09/29 07:43:58;;;;;;;81.35;65.07;;;34.20;84.10;;;;;;5054064;28;20025;-71
2022/09/29 07:46:25;;;;;;;33.40;25.33;;;34.20;85.10;;;;;;5053398;28;20057;-68
2022/09/29 07:48:52;;;;;;;78.78;57.67;;;34.30;82.40;;;;;;5053245;28;20058;-69
2022/09/29 07:51:19;;;;;;;102.13;74.93;;;34.30;83.50;;;;;;5052833;28;20013;-69
2022/09/29 07:53:46;;;;;;;30.52;21.63;;;34.30;84.50;;;;;;5052772;28;20092;-71
2022/09/29 07:56:20;;;;;;;28.58;19.30;;;34.40;83.50;;;;;;5053213;28;20021;-69
2022/09/29 07:58:48;;;;;;;27.95;17.75;;;34.40;84.50;;;;;;5052527;28;20028;-69
2022/09/29 08:01:17;;;;;;;23.88;16.42;;;34.30;83.70;;;;;;5052508;28;20021;-70
2022/09/29 08:03:48;;;;;;;24.13;15.13;;;34.20;83.00;;;;;;5062931;28;20080;-68
2022/09/29 08:06:15;;;;;;;71.75;54.17;;;34.10;82.00;;;;;;5067090;28;20108;-69
2022/09/29 08:08:42;;;;;;;24.33;15.65;;;34.10;82.30;;;;;;5067660;28;20378;-66
2022/09/29 08:11:11;;;;;;;21.55;14.35;;;34.10;83.10;;;;;;5067466;28;20100;-68
2022/09/29 08:13:38;;;;;;;37.13;33.22;;;34.10;83.20;;;;;;5064767;28;20082;-68
2022/09/29 08:16:07;;;;;;;26.60;14.80;;;34.10;85.20;;;;;;5067612;28;20454;-71
2022/09/29 08:18:35;;;;;;;36.30;20.90;;;34.00;84.50;;;;;;5066439;28;20020;-71
2022/09/29 08:21:02;;;;;;;19.75;13.52;;;33.90;84.90;;;;;;5065817;28;20479;-71
2022/09/29 08:23:30;;;;;;;28.83;13.98;;;34.00;84.00;;;;;;5067108;28;20498;-68
2022/09/29 08:26:01;;;;;;;23.00;15.32;;;34.00;84.20;;;;;;5066279;28;20123;-68
2022/09/29 08:28:29;;;;;;;18.10;13.10;;;34.00;85.70;;;;;;5064922;28;20419;-67
2022/09/29 08:30:56;;;;;;;22.83;14.20;;;34.00;85.30;;;;;;5066220;28;20025;-67
2022/09/29 08:33:22;;;;;;;20.00;14.93;;;33.90;88.00;;;;;;5067228;28;20147;-67
2022/09/29 08:35:58;;;;;;;27.05;16.15;;;33.90;86.80;;;;;;5064382;28;20021;-67
2022/09/29 08:38:25;;;;;;;31.75;18.10;;;34.00;88.30;;;;;;5069439;28;20025;-67
2022/09/29 08:40:53;;;;;;;21.50;14.05;;;33.90;86.10;;;;;;5069246;28;20024;-69
2022/09/29 08:43:29;;;;;;;18.42;12.45;;;33.80;87.40;;;;;;5065938;28;20017;-68
2022/09/29 08:46:11;;;;;;;25.88;13.00;;;33.80;87.10;;;;;;5065015;28;20029;-69
2022/09/29 08:48:42;;;;;;;23.30;12.75;;;33.80;86.60;;;;;;5066136;28;20024;-70
2022/09/29 08:51:16;;;;;;;23.42;13.13;;;33.70;86.00;;;;;;5066079;28;20471;-70
2022/09/29 08:53:46;;;;;;;23.92;15.88;;;33.60;86.00;;;;;;5065752;28;20090;-68
2022/09/29 08:56:16;;;;;;;20.08;13.65;;;33.70;85.50;;;;;;5064233;28;20049;-68
2022/09/29 08:58:43;;;;;;;21.25;11.40;;;33.60;86.20;;;;;;5066763;28;20020;-70
2022/09/29 09:01:34;;;;;;;21.85;11.50;;;33.60;85.40;;;;;;5067194;28;20051;-69
2022/09/29 09:04:13;;;;;;;20.17;14.00;;;33.60;83.70;;;;;;5028411;28;20034;-71
2022/09/29 09:06:59;;;;;;;20.05;13.85;;;33.50;85.50;;;;;;5032546;28;20112;-69
2022/09/29 09:09:55;;;;;;;21.90;14.02;;;33.50;84.10;;;;;;5032545;28;20100;-68
2022/09/29 09:12:51;;;;;;;27.88;15.07;;;33.50;83.20;;;;;;5026746;28;20088;-69
2022/09/29 09:15:33;;;;;;;23.58;14.15;;;33.50;83.50;;;;;;4945268;28;20050;-69
2022/09/29 09:18:30;;;;;;;25.08;12.40;;;33.50;84.10;;;;;;4944713;29;20049;-69
2022/09/29 09:21:18;;;;;;;26.17;17.35;;;33.50;84.40;;;;;;4943655;29;20059;-68
2022/09/29 09:23:54;;;;;;;25.90;15.68;;;33.50;85.00;;;;;;4945608;29;20196;-69
2022/09/29 09:26:31;;;;;;;24.98;14.43;;;33.40;86.60;;;;;;4944367;29;20546;-67
2022/09/29 09:29:03;;;;;;;34.30;14.90;;;33.40;87.40;;;;;;4944609;29;20057;-66
2022/09/29 09:31:39;;;;;;;25.75;16.05;;;33.40;87.90;;;;;;4945380;29;20016;-70
2022/09/29 09:34:13;;;;;;;23.67;15.52;;;33.30;86.90;;;;;;4961738;28;20029;-70
2022/09/29 09:37:02;;;;;;;23.70;14.00;;;33.30;87.50;;;;;;5001826;28;20509;-70
2022/09/29 09:39:35;;;;;;;25.50;15.18;;;33.30;86.70;;;;;;5002778;28;20057;-67
2022/09/29 09:42:11;;;;;;;33.47;19.98;;;33.20;86.30;;;;;;5002657;28;20027;-67
2022/09/29 09:44:43;;;;;;;35.58;17.50;;;33.10;87.10;;;;;;4999781;28;20034;-67
2022/09/29 09:47:21;;;;;;;22.67;12.38;;;33.10;87.20;;;;;;5001270;28;20023;-67
2022/09/29 09:49:56;;;;;;;21.27;12.20;;;33.00;87.20;;;;;;4999665;28;20089;-69
2022/09/29 09:52:46;;;;;;;23.75;12.77;;;33.00;85.50;;;;;;4998836;28;20049;-69
2022/09/29 09:55:17;;;;;;;21.48;14.35;;;33.00;85.70;;;;;;5001280;28;20384;-69
2022/09/29 09:57:44;;;;;;;27.98;16.88;;;32.90;86.20;;;;;;5003120;28;20488;-68
2022/09/29 10:00:21;;;;;;;35.08;17.10;;;33.00;87.70;;;;;;5083522;28;20475;-69
2022/09/29 10:02:50;;;;;;;30.10;14.20;;;33.00;87.80;;;;;;5081704;28;20016;-67
2022/09/29 10:05:33;;;;;;;32.90;17.20;;;32.90;87.50;;;;;;5080225;28;20028;-67
2022/09/29 10:07:59;;;;;;;33.92;19.60;;;32.80;88.10;;;;;;5072888;28;20033;-67
2022/09/29 10:10:28;;;;;;;32.45;17.92;;;32.80;87.40;;;;;;5079315;28;20505;-67
2022/09/29 10:13:10;;;;;;;32.42;17.58;;;32.80;87.60;;;;;;5079574;28;20040;-67
2022/09/29 10:15:52;;;;;;;27.45;15.45;;;32.70;87.00;;;;;;5094000;28;20051;-66
2022/09/29 10:18:26;;;;;;;36.58;21.80;;;32.70;87.40;;;;;;5093724;28;20493;-67
2022/09/29 10:20:52;;;;;;;36.35;21.13;;;32.60;86.40;;;;;;5093704;28;20048;-67
2022/09/29 10:23:37;;;;;;;40.35;22.17;;;32.60;87.10;;;;;;5093793;28;20493;-69
2022/09/29 10:26:17;;;;;;;48.42;27.67;;;32.60;87.70;;;;;;5093592;28;20031;-68
2022/09/29 10:29:12;;;;;;;43.92;24.05;;;32.50;88.90;;;;;;5093431;28;20056;-67
2022/09/29 10:31:39;;;;;;;37.13;20.00;;;32.50;90.00;;;;;;5093568;28;20035;-69
2022/09/29 10:34:12;;;;;;;30.95;20.15;;;32.40;90.10;;;;;;5093619;28;20016;-68
2022/09/29 10:36:58;;;;;;;33.55;18.58;;;32.40;90.40;;;;;;5093612;28;20107;-69
2022/09/29 10:39:47;;;;;;;31.25;17.50;;;32.30;91.00;;;;;;5093446;28;20024;-68
2022/09/29 10:42:30;;;;;;;36.05;18.30;;;32.30;90.60;;;;;;5093333;28;20032;-68
2022/09/29 10:45:28;;;;;;;31.30;18.17;;;32.20;90.80;;;;;;5075542;28;20037;-69
2022/09/29 10:47:57;;;;;;;31.38;18.45;;;32.10;90.40;;;;;;5054698;28;20134;-68
2022/09/29 10:50:28;;;;;;;51.65;31.88;;;32.00;90.80;;;;;;5053146;28;20025;-68
2022/09/29 10:52:57;;;;;;;111.05;82.88;;;32.00;90.70;;;;;;5052978;28;20029;-68
2022/09/29 10:55:24;;;;;;;275.80;183.77;;;32.00;90.80;;;;;;5062511;28;20044;-69
2022/09/29 10:57:55;;;;;;;182.85;102.63;;;32.00;91.10;;;;;;5073116;28;20028;-67
2022/09/29 11:00:31;;;;;;;134.25;58.53;;;31.90;91.20;;;;;;5072937;28;20463;-67
2022/09/29 11:03:04;;;;;;;131.55;50.38;;;31.90;91.10;;;;;;5073101;28;20024;-68
2022/09/29 11:05:32;;;;;;;135.60;61.78;;;31.80;91.60;;;;;;5072899;28;20021;-68
2022/09/29 11:07:58;;;;;;;90.93;45.63;;;31.80;91.80;;;;;;5078578;28;20029;-68
2022/09/29 11:10:37;;;;;;;77.22;42.22;;;31.80;91.40;;;;;;5081869;28;20013;-68
2022/09/29 11:13:24;;;;;;;90.20;43.78;;;31.80;91.80;;;;;;5078057;28;20496;-67
2022/09/29 11:15:50;;;;;;;79.03;43.42;;;31.80;92.30;;;;;;5000956;28;20533;-68
2022/09/29 11:18:26;;;;;;;70.47;41.33;;;31.80;91.80;;;;;;5000368;28;20136;-66
2022/09/29 11:21:05;;;;;;;102.45;60.55;;;31.80;91.80;;;;;;5000596;28;20101;-67
2022/09/29 11:23:46;;;;;;;115.43;60.55;;;31.80;92.50;;;;;;5001682;28;20513;-66
2022/09/29 11:26:14;;;;;;;72.30;38.23;;;31.80;92.40;;;;;;5000976;28;20436;-66
2022/09/29 11:29:20;;;;;;;91.10;45.70;;;31.70;92.00;;;;;;5010871;28;20092;-67
2022/09/29 11:31:56;;;;;;;79.32;38.35;;;31.60;92.70;;;;;;5011013;28;20058;-67
2022/09/29 11:34:24;;;;;;;74.97;38.88;;;31.50;92.80;;;;;;5011334;28;20435;-67
2022/09/29 11:36:50;;;;;;;51.47;26.73;;;31.50;92.70;;;;;;5010909;28;20030;-68
2022/09/29 11:39:38;;;;;;;63.03;34.85;;;31.40;92.90;;;;;;5013676;28;20029;-67
2022/09/29 11:42:14;;;;;;;42.85;23.88;;;31.40;93.70;;;;;;5014737;28;20586;-69
2022/09/29 11:44:57;;;;;;;41.15;22.23;;;31.30;93.60;;;;;;5014676;28;20034;-68
2022/09/29 11:47:29;;;;;;;45.45;25.67;;;31.30;93.60;;;;;;5069514;28;20109;-68
2022/09/29 11:50:24;;;;;;;43.35;22.60;;;31.30;94.20;;;;;;5074480;28;20024;-70
2022/09/29 11:53:11;;;;;;;40.42;22.13;;;31.30;94.10;;;;;;5045536;28;20043;-70
2022/09/29 11:55:51;;;;;;;39.33;23.02;;;31.20;94.30;;;;;;4988835;28;20089;-69
2022/09/29 11:58:43;;;;;;;37.92;21.92;;;31.20;94.80;;;;;;4991284;28;20035;-68
2022/09/29 12:01:29;;;;;;;37.33;20.67;;;31.20;95.10;;;;;;4990043;28;20168;-65
2022/09/29 12:04:07;;;;;;;38.30;22.70;;;31.20;94.90;;;;;;4990707;28;20114;-69
2022/09/29 12:06:35;;;;;;;53.40;33.58;;;31.20;95.20;;;;;;4982248;28;20027;-69
2022/09/29 12:09:17;;;;;;;47.88;28.45;;;31.20;95.00;;;;;;4986220;28;20119;-70
2022/09/29 12:11:52;;;;;;;60.17;39.17;;;31.10;95.20;;;;;;4989323;28;20050;-70
2022/09/29 12:14:33;;;;;;;42.53;25.50;;;31.00;95.40;;;;;;4989109;28;20018;-70
2022/09/29 12:17:10;;;;;;;46.23;25.27;;;31.00;95.40;;;;;;4984388;28;20502;-71
2022/09/29 12:19:40;;;;;;;32.92;18.88;;;31.00;95.70;;;;;;4989509;28;20030;-69
2022/09/29 12:22:14;;;;;;;30.83;17.80;;;30.90;95.40;;;;;;4978201;28;20604;-69
2022/09/29 12:24:50;;;;;;;66.95;53.70;;;30.90;95.70;;;;;;4989745;28;20057;-67
2022/09/29 12:27:22;;;;;;;47.45;28.88;;;30.80;96.30;;;;;;4991805;28;20107;-68
2022/09/29 12:29:57;;;;;;;39.65;27.77;;;30.80;96.30;;;;;;4997993;28;20042;-67
2022/09/29 12:32:50;;;;;;;44.80;30.85;;;30.80;96.00;;;;;;5010557;28;20046;-67
2022/09/29 12:35:40;;;;;;;91.25;71.72;;;30.80;96.10;;;;;;5008219;28;20022;-69
2022/09/29 12:38:07;;;;;;;51.95;36.92;;;30.80;96.20;;;;;;4951396;29;20039;-67
2022/09/29 12:40:42;;;;;;;49.33;31.67;;;30.80;96.00;;;;;;4955371;29;20039;-70
2022/09/29 12:43:24;;;;;;;39.22;25.63;;;30.70;96.40;;;;;;4951013;29;20043;-66
2022/09/29 12:45:56;;;;;;;;;;;30.70;95.90;;;;;;4951600;29;20035;-67
2022/09/29 12:48:50;;;;;;;46.10;25.98;;;30.70;96.50;;;;;;4954137;29;20298;-71
2022/09/29 12:51:17;;;;;;;32.08;17.63;;;30.60;96.50;;;;;;4915872;29;20039;-66